createdAt,value
2019-01-21T00:02:14.451Z,77.46
2019-01-21T00:06:22.367Z,76.66
2019-01-21T00:10:30.755Z,74.03
2019-01-21T00:14:38.788Z,73.13
2019-01-21T00:18:46.885Z,72.52
2019-01-21T00:22:54.993Z,72.58
2019-01-21T00:27:03.009Z,72.38
2019-01-21T00:31:10.744Z,71.88
2019-01-21T00:35:19.150Z,72.36
2019-01-21T00:39:28.088Z,72.32
2019-01-21T00:43:36.148Z,72.07
2019-01-21T00:47:44.775Z,72.13
2019-01-21T00:51:52.796Z,71.75
2019-01-21T00:56:00.827Z,71.88
2019-01-21T01:00:13.079Z,72.09
2019-01-21T01:04:20.698Z,72.19
2019-01-21T01:08:30.487Z,72.36
2019-01-21T01:12:38.506Z,71.71
2019-01-21T01:16:46.449Z,71.26
2019-01-21T01:20:54.537Z,71.36
2019-01-21T01:25:02.366Z,71.22
2019-01-21T01:29:10.400Z,70.70
2019-01-21T01:33:19.538Z,70.64
2019-01-21T01:37:29.020Z,70.60
2019-01-21T01:41:36.870Z,70.95
2019-01-21T01:45:44.793Z,71.16
2019-01-21T01:49:52.458Z,71.08
2019-01-21T01:54:01.068Z,70.79
2019-01-21T01:58:09.828Z,70.51
2019-01-21T02:02:17.966Z,70.40
2019-01-21T02:06:26.020Z,70.19
2019-01-21T02:10:34.055Z,70.00
2019-01-21T02:14:41.819Z,71.53
2019-01-21T02:18:49.517Z,70.60
2019-01-21T02:23:03.478Z,71.12
2019-01-21T02:27:29.688Z,71.45
2019-01-21T02:32:26.670Z,72.37
2019-01-21T02:37:21.461Z,71.77
2019-01-21T02:41:57.444Z,71.85
2019-01-21T02:46:41.644Z,72.61
2019-01-21T02:51:15.451Z,72.84
2019-01-21T02:56:13.064Z,72.67
2019-01-21T03:00:44.066Z,73.77
2019-01-21T03:05:27.415Z,73.68
2019-01-21T03:10:25.146Z,73.73
2019-01-21T03:15:18.245Z,72.78
2019-01-21T03:19:55.105Z,72.51
2019-01-21T03:24:35.809Z,73.25
2019-01-21T03:29:41.573Z,73.30
2019-01-21T03:34:02.301Z,73.72
2019-01-21T03:38:53.804Z,73.71
2019-01-21T03:43:41.236Z,73.24
2019-01-21T03:48:16.677Z,73.11
2019-01-21T03:53:16.960Z,73.45
2019-01-21T03:57:44.956Z,73.80
2019-01-21T04:02:37.574Z,74.06
2019-01-21T04:07:10.543Z,74.26
2019-01-21T04:12:03.732Z,73.93
2019-01-21T04:16:41.793Z,73.77
2019-01-21T04:21:54.646Z,73.89
2019-01-21T04:26:54.949Z,73.76
2019-01-21T04:31:51.194Z,73.68
2019-01-21T04:36:54.840Z,73.26
2019-01-21T04:41:52.887Z,72.45
2019-01-21T04:46:54.606Z,72.86
2019-01-21T04:51:29.264Z,73.54
2019-01-21T04:56:10.550Z,73.72
2019-01-21T05:00:56.210Z,71.86
2019-01-21T05:05:25.919Z,73.12
2019-01-21T05:10:16.049Z,72.07
2019-01-21T05:14:47.973Z,72.69
2019-01-21T05:19:47.838Z,72.25
2019-01-21T05:24:41.460Z,71.52
2019-01-21T05:29:17.548Z,71.78
2019-01-21T05:34:30.593Z,72.59
2019-01-21T05:39:28.443Z,72.66
2019-01-21T05:44:32.071Z,73.04
2019-01-21T05:49:12.140Z,72.59
2019-01-21T05:54:04.792Z,73.00
2019-01-21T05:58:53.016Z,72.40
2019-01-21T06:03:36.514Z,72.62
2019-01-21T06:08:25.758Z,72.40
2019-01-21T06:12:51.043Z,72.15
2019-01-21T06:17:20.245Z,72.06
2019-01-21T06:22:12.450Z,72.37
2019-01-21T06:27:06.471Z,70.74
2019-01-21T06:32:07.134Z,70.43
2019-01-21T06:36:58.964Z,71.93
2019-01-21T06:41:50.169Z,70.43
2019-01-21T06:46:47.767Z,70.65
2019-01-21T06:51:22.590Z,71.08
2019-01-21T06:56:14.719Z,70.58
2019-01-21T07:00:51.256Z,70.07
2019-01-21T07:05:18.345Z,71.24
2019-01-21T07:10:09.916Z,69.83
2019-01-21T07:14:59.977Z,69.88
2019-01-21T07:19:39.778Z,69.64
2019-01-21T07:24:23.117Z,69.72
2019-01-21T07:29:08.656Z,70.01
2019-01-21T07:33:40.361Z,70.13
2019-01-21T07:38:13.645Z,69.41
2019-01-21T07:42:35.098Z,69.99
2019-01-21T07:47:19.018Z,69.43
2019-01-21T07:51:53.037Z,69.27
2019-01-21T07:56:43.695Z,68.00
2019-01-21T08:01:02.351Z,68.00
2019-01-21T08:06:12.446Z,68.14
2019-01-21T08:10:58.044Z,67.44
2019-01-21T08:15:26.130Z,67.43
2019-01-21T08:19:55.043Z,66.77
2019-01-21T08:24:41.636Z,66.28
2019-01-21T08:29:06.804Z,66.40
2019-01-21T08:33:45.273Z,66.46
2019-01-21T08:38:29.580Z,66.95
2019-01-21T08:43:17.511Z,65.85
2019-01-21T08:48:09.151Z,65.93
2019-01-21T08:52:39.718Z,65.19
2019-01-21T08:57:16.501Z,66.77
2019-01-21T09:02:17.515Z,67.24
2019-01-21T09:06:42.245Z,68.12
2019-01-21T09:11:17.400Z,66.09
2019-01-21T09:16:04.148Z,67.79
2019-01-21T09:20:54.745Z,67.04
2019-01-21T09:25:31.436Z,66.74
2019-01-21T09:30:17.469Z,66.63
2019-01-21T09:34:48.921Z,66.38
2019-01-21T09:39:36.921Z,67.91
2019-01-21T09:44:05.859Z,68.18
2019-01-21T09:48:11.939Z,68.55
2019-01-21T09:52:21.923Z,69.07
2019-01-21T09:56:32.799Z,68.24
2019-01-21T10:00:41.121Z,68.58
2019-01-21T10:04:56.681Z,69.69
2019-01-21T10:09:41.386Z,67.69
2019-01-21T10:14:16.479Z,69.00
2019-01-21T10:18:57.652Z,70.36
2019-01-21T10:23:54.943Z,70.78
2019-01-21T10:28:27.598Z,69.79
2019-01-21T10:33:11.456Z,70.81
2019-01-21T10:38:10.584Z,70.73
2019-01-21T10:42:40.743Z,70.82
2019-01-21T10:47:11.953Z,69.29
2019-01-21T10:51:42.321Z,70.67
2019-01-21T10:56:36.977Z,69.61
2019-01-21T11:01:49.892Z,69.27
2019-01-21T11:06:36.721Z,69.49
2019-01-21T11:11:10.374Z,69.52
2019-01-21T11:16:09.896Z,68.99
2019-01-21T11:20:33.272Z,69.56
2019-01-21T11:25:39.960Z,69.10
2019-01-21T11:30:21.023Z,68.43
2019-01-21T11:35:06.154Z,67.44
2019-01-21T11:40:03.322Z,66.13
2019-01-21T11:45:07.141Z,65.35
2019-01-21T11:49:49.420Z,66.66
2019-01-21T11:54:21.277Z,65.03
2019-01-21T11:59:00.665Z,65.26
2019-01-21T12:03:30.760Z,65.13
2019-01-21T12:08:18.152Z,64.03
2019-01-21T12:12:40.152Z,63.59
2019-01-21T12:17:24.002Z,63.88
2019-01-21T12:22:14.482Z,63.17
2019-01-21T12:26:37.277Z,63.33
2019-01-21T12:31:25.999Z,59.50
2019-01-21T12:36:06.622Z,59.56
2019-01-21T12:40:49.152Z,61.15
2019-01-21T12:45:49.391Z,59.77
2019-01-21T12:50:45.622Z,58.71
2019-01-21T12:55:37.667Z,59.92
2019-01-21T13:00:32.287Z,60.96
2019-01-21T13:05:16.452Z,60.74
2019-01-21T13:10:03.301Z,60.99
2019-01-21T13:14:26.362Z,61.37
2019-01-21T13:18:54.326Z,60.37
2019-01-21T13:23:36.442Z,60.02
2019-01-21T13:28:08.013Z,60.65
2019-01-21T13:32:29.119Z,61.27
2019-01-21T13:37:07.858Z,60.65
2019-01-21T13:41:56.581Z,61.41
2019-01-21T13:46:54.679Z,60.89
2019-01-21T13:51:42.454Z,62.35
2019-01-21T13:56:22.902Z,62.34
2019-01-21T14:00:54.820Z,61.88
2019-01-21T14:05:31.122Z,60.45
2019-01-21T14:10:24.802Z,60.73
2019-01-21T14:15:09.205Z,61.62
2019-01-21T14:19:54.331Z,61.28
2019-01-21T14:24:41.412Z,61.14
2019-01-21T14:29:33.136Z,62.94
2019-01-21T14:34:34.347Z,64.04
2019-01-21T14:39:21.910Z,63.27
2019-01-21T14:44:05.937Z,63.13
2019-01-21T14:48:42.836Z,62.57
2019-01-21T14:53:13.180Z,63.11
2019-01-21T14:58:01.746Z,63.82
2019-01-21T15:02:59.513Z,63.70
2019-01-21T15:07:24.887Z,63.63
2019-01-21T15:12:22.904Z,64.59
2019-01-21T15:17:23.376Z,62.88
2019-01-21T15:22:02.210Z,63.37
2019-01-21T15:27:03.260Z,64.37
2019-01-21T15:31:58.367Z,62.57
2019-01-21T15:36:58.646Z,64.77
2019-01-21T15:41:46.976Z,64.59
2019-01-21T15:46:45.694Z,64.68
2019-01-21T15:51:46.763Z,64.95
2019-01-21T15:56:10.883Z,64.83
2019-01-21T16:00:59.749Z,64.43
2019-01-21T16:05:41.140Z,64.82
2019-01-21T16:10:44.731Z,63.95
2019-01-21T16:15:21.650Z,64.25
2019-01-21T16:19:50.500Z,63.90
2019-01-21T16:24:22.238Z,63.16
2019-01-21T16:29:15.588Z,63.88
2019-01-21T16:33:59.034Z,64.51
2019-01-21T16:38:37.351Z,63.71
2019-01-21T16:42:47.310Z,63.76
2019-01-21T16:46:55.484Z,63.72
2019-01-21T16:51:04.079Z,64.78
2019-01-21T16:55:12.643Z,65.01
2019-01-21T16:59:20.612Z,65.80
2019-01-21T17:03:28.636Z,65.01
2019-01-21T17:07:36.925Z,65.01
2019-01-21T17:11:47.879Z,65.19
2019-01-21T17:15:56.058Z,65.48
2019-01-21T17:20:05.305Z,65.03
2019-01-21T17:24:13.499Z,65.55
2019-01-21T17:28:22.261Z,65.92
2019-01-21T17:32:31.893Z,65.73
2019-01-21T17:36:41.324Z,65.91
2019-01-21T17:40:50.105Z,66.24
2019-01-21T17:44:57.916Z,66.00
2019-01-21T17:49:06.467Z,65.98
2019-01-21T17:53:14.453Z,65.98
2019-01-21T17:57:22.661Z,64.37
2019-01-21T18:01:30.615Z,65.41
2019-01-21T18:05:38.394Z,65.32
2019-01-21T18:09:46.376Z,65.63
2019-01-21T18:13:54.659Z,65.12
2019-01-21T18:18:03.274Z,64.84
2019-01-21T18:22:13.490Z,65.12
2019-01-21T18:26:21.530Z,65.08
2019-01-21T18:30:30.383Z,66.24
2019-01-21T18:34:38.340Z,66.11
2019-01-21T18:38:47.549Z,65.74
2019-01-21T18:42:55.909Z,65.65
2019-01-21T18:47:04.059Z,65.91
2019-01-21T18:51:12.238Z,65.68
2019-01-21T18:55:20.133Z,65.94
2019-01-21T18:59:28.066Z,65.90
2019-01-21T19:03:36.254Z,65.90
2019-01-21T19:07:44.370Z,65.78
2019-01-21T19:11:52.239Z,65.77
2019-01-21T19:16:00.606Z,65.74
2019-01-21T19:20:11.174Z,65.48
2019-01-21T19:24:19.690Z,66.05
2019-01-21T19:28:27.856Z,66.54
2019-01-21T19:32:35.908Z,65.99
2019-01-21T19:36:44.086Z,66.33
2019-01-21T19:40:52.314Z,66.24
2019-01-21T19:45:01.004Z,65.31
2019-01-21T19:49:09.783Z,65.67
2019-01-21T19:53:18.721Z,66.07
2019-01-21T19:57:26.755Z,65.87
2019-01-21T20:01:35.234Z,65.62
2019-01-21T20:05:43.354Z,65.98
2019-01-21T20:09:51.278Z,66.38
2019-01-21T20:13:59.321Z,66.55
2019-01-21T20:18:07.640Z,66.29
2019-01-21T20:22:15.729Z,66.24
2019-01-21T20:26:23.430Z,66.90
2019-01-21T20:30:31.199Z,66.47
2019-01-21T20:34:40.357Z,66.09
2019-01-21T20:38:48.470Z,65.55
2019-01-21T20:42:56.488Z,65.90
2019-01-21T20:47:04.734Z,65.97
2019-01-21T20:51:12.523Z,66.31
2019-01-21T20:55:21.421Z,66.01
2019-01-21T20:59:30.055Z,66.43
2019-01-21T21:03:38.113Z,65.56
2019-01-21T21:07:46.097Z,65.89
2019-01-21T21:11:53.901Z,66.35
2019-01-21T21:16:01.899Z,66.11
2019-01-21T21:20:11.391Z,65.70
2019-01-21T21:24:20.998Z,65.65
2019-01-21T21:28:31.143Z,66.28
2019-01-21T21:32:38.772Z,66.59
2019-01-21T21:36:46.724Z,66.01
2019-01-21T21:40:54.685Z,65.96
2019-01-21T21:45:02.245Z,65.35
2019-01-21T21:49:10.221Z,65.48
2019-01-21T21:53:18.215Z,64.92
2019-01-21T21:57:26.598Z,65.44
2019-01-21T22:01:34.587Z,64.89
2019-01-21T22:05:42.368Z,65.02
2019-01-21T22:09:50.117Z,64.88
2019-01-21T22:13:58.085Z,65.32
2019-01-21T22:18:06.210Z,65.39
2019-01-21T22:22:13.936Z,66.12
2019-01-21T22:26:21.526Z,66.19
2019-01-21T22:30:29.812Z,65.43
2019-01-21T22:34:37.837Z,65.57
2019-01-21T22:38:45.570Z,65.27
2019-01-21T22:42:53.672Z,65.34
2019-01-21T22:47:01.701Z,65.39
2019-01-21T22:51:09.720Z,65.26
2019-01-21T22:55:18.985Z,64.82
2019-01-21T22:59:26.998Z,65.79
2019-01-21T23:03:35.059Z,65.63
2019-01-21T23:07:43.341Z,65.40
2019-01-21T23:11:51.250Z,65.69
2019-01-21T23:15:59.207Z,65.57
2019-01-21T23:20:07.732Z,65.14
2019-01-21T23:24:16.646Z,65.31
2019-01-21T23:28:24.880Z,65.16
2019-01-21T23:32:32.927Z,64.75
2019-01-21T23:36:41.049Z,64.62
2019-01-21T23:40:49.122Z,64.55
2019-01-21T23:44:56.851Z,64.25
2019-01-21T23:49:04.966Z,64.91
2019-01-21T23:53:13.457Z,65.11
2019-01-21T23:57:21.259Z,64.90
